New Hartford, IA (50660)

8:42 PM CDT on October 22, 2014 (GMT -0500)
Laurel Circle | Change Station
CLOSE
Current Station
Personal Weather Station
Location: Cedar Falls, IA
Elevation: 942 ft
Nearby Weather Stations

Elev 942 ft 42.52 °N, 92.46 °W | Updated 16 seconds ago

Overcast
Overcast
54.3 °F
Feels Like 54.3 °F
N
0.0
Wind Variable Wind from SE
Gusts 0.0 mph

Today
High -- | Low -- °F
--% Chance of Precip.
Yesterday
High -- | Low -- °F
Precip. -- in
7:32 AM 6:17 PM
Waning Crescent, 1% visible
Pressure 30.17 in
Visibility 10.0 miles
Clouds Few 4400 ft
Scattered Clouds 9500 ft
Dew Point 42 °F
Humidity 64%
Rainfall 0.00 in
Snow Depth Not available.
UV 0 out of 12
Pollen 1.50 out of 12
Air Quality Not available.
Flu Activity Sporadic
METAR KALO 230054Z 15009KT 10SM FEW044 SCT095 13/04 A3015 RMK AO2 SLP214 T01280044

More Conditions Fewer Conditions

Pressure 30.17 in
Visibility 10.0 miles
Clouds Few 4400 ft
Scattered Clouds 9500 ft
Dew Point 42 °F
Humidity 64%
Rainfall 0.00 in
Snow Depth Not available.
UV 0 out of 12
Pollen 1.50 out of 12
Air Quality Not available.
Flu Activity Sporadic
METAR KALO 230054Z 15009KT 10SM FEW044 SCT095 13/04 A3015 RMK AO2 SLP214 T01280044

More Conditions Fewer Conditions

10-Day Weather Forecast

Almanac

Astronomy

Oct. 22, 2014 Rise Set
Actual Time 7:32 AM CDT 6:17 PM CDT
Civil Twilight 7:03 AM CDT 6:46 PM CDT
Nautical Twilight 6:30 AM CDT 7:18 PM CDT
Astronomical Twilight 5:57 AM CDT 7:51 PM CDT
Moon 6:12 AM CDT (10/22) 5:45 PM CDT (10/22)
Length of Visible Light 11h 42m
Length of Day
10h 45m
Tomorrow will be 2m 42s shorter.
Waning Crescent, 1% of the Moon is Illuminated
Today
Waning Crescent
Oct 23
New
Oct 30
First Quarter
Nov 6
Full
Nov 14
Last Quarter

Today's Extremes

State Highs State Lows

Community

WunderPhotos

Upload Photos

1,764,108 photos uploaded!

Nearby

Snow Depth

Station Depth Elevation
No new snow has been reported.

Earthquake Activity

City Distance Mag. Time & Date
No recent earthquake activity has been reported nearby.
Minimum magnitude displayed is 2.5.

Coastal Water Temperatures

Place Temperature
No Stations Reporting

Nearby Weather Stations